createdAt,value
2023-05-02T00:00:50.556Z,101977.06
2023-05-02T00:03:17.366Z,101977.50
2023-05-02T00:05:44.101Z,101978.34
2023-05-02T00:08:12.009Z,101978.53
2023-05-02T00:10:38.698Z,101982.09
2023-05-02T00:13:05.350Z,101981.25
2023-05-02T00:15:31.767Z,101977.50
2023-05-02T00:17:58.248Z,101981.72
2023-05-02T00:20:24.766Z,101984.00
2023-05-02T00:22:51.197Z,101980.47
2023-05-02T00:25:17.748Z,101976.72
2023-05-02T00:27:46.473Z,101989.22
2023-05-02T00:30:14.122Z,101989.03
2023-05-02T00:32:40.733Z,101982.56
2023-05-02T00:35:08.480Z,101993.19
2023-05-02T00:37:35.217Z,101980.50
2023-05-02T00:40:03.527Z,101981.34
2023-05-02T00:42:34.477Z,101985.06
2023-05-02T00:45:00.863Z,101984.06
2023-05-02T00:47:27.367Z,101988.81
2023-05-02T00:49:54.269Z,101986.78
2023-05-02T00:52:20.875Z,101993.03
2023-05-02T00:54:47.440Z,101994.22
2023-05-02T00:57:14.033Z,102001.31
2023-05-02T00:59:40.649Z,102001.50
2023-05-02T01:02:13.015Z,101997.97
2023-05-02T01:05:07.630Z,102007.38
2023-05-02T01:07:40.373Z,102004.69
2023-05-02T01:10:23.589Z,102010.09
2023-05-02T01:13:07.470Z,102015.31
2023-05-02T01:15:37.964Z,102013.16
2023-05-02T01:18:06.564Z,102013.78
2023-05-02T01:20:38.510Z,102013.34
2023-05-02T01:23:14.248Z,102008.78
2023-05-02T01:25:56.250Z,102014.13
2023-05-02T01:28:53.721Z,102023.28
2023-05-02T01:31:22.018Z,102026.38
2023-05-02T01:33:49.588Z,102022.41
2023-05-02T01:36:17.531Z,102028.19
2023-05-02T01:38:45.312Z,102026.72
2023-05-02T01:41:13.599Z,102032.53
2023-05-02T01:43:41.518Z,102040.84
2023-05-02T01:46:11.326Z,102043.75
2023-05-02T01:48:38.929Z,102042.28
2023-05-02T01:51:07.881Z,102055.53
2023-05-02T01:53:35.567Z,102050.53
2023-05-02T01:56:03.428Z,102058.63
2023-05-02T01:58:30.834Z,102074.81
2023-05-02T02:01:00.198Z,102064.06
2023-05-02T02:03:29.628Z,102082.28
2023-05-02T02:05:56.891Z,102076.03
2023-05-02T02:08:24.108Z,102077.34
2023-05-02T02:11:00.570Z,102082.09
2023-05-02T02:13:32.730Z,102083.78
2023-05-02T02:16:01.983Z,102076.13
2023-05-02T02:18:30.378Z,102079.38
2023-05-02T02:20:59.150Z,102075.69
2023-05-02T02:23:28.864Z,102086.28
2023-05-02T02:25:56.994Z,102089.56
2023-05-02T02:28:23.706Z,102096.00
2023-05-02T02:30:50.208Z,102097.22
2023-05-02T02:33:17.239Z,102105.13
2023-05-02T02:35:50.489Z,102108.66
2023-05-02T02:38:28.139Z,102106.81
2023-05-02T02:41:06.518Z,102114.28
2023-05-02T02:43:41.753Z,102110.09
2023-05-02T02:46:27.313Z,102116.34
2023-05-02T02:49:06.566Z,102122.13
2023-05-02T02:51:39.709Z,102124.19
2023-05-02T02:54:25.734Z,102124.53
2023-05-02T02:57:24.147Z,102125.31
2023-05-02T03:00:07.172Z,102129.44
2023-05-02T03:02:36.011Z,102135.03
2023-05-02T03:05:05.414Z,102133.56
2023-05-02T03:07:32.437Z,102128.91
2023-05-02T03:10:03.752Z,102138.03
2023-05-02T03:12:30.953Z,102141.38
2023-05-02T03:15:29.661Z,102145.09
2023-05-02T03:17:56.451Z,102148.19
2023-05-02T03:20:23.493Z,102145.09
2023-05-02T03:22:49.964Z,102151.34
2023-05-02T03:25:16.822Z,102150.69
2023-05-02T03:27:46.617Z,102160.03
2023-05-02T03:30:13.765Z,102155.25
2023-05-02T03:32:40.236Z,102160.47
2023-05-02T03:35:07.430Z,102166.72
2023-05-02T03:37:38.757Z,102166.72
2023-05-02T03:40:05.888Z,102171.28
2023-05-02T03:42:39.854Z,102168.59
2023-05-02T03:45:10.277Z,102174.81
2023-05-02T03:47:36.875Z,102179.19
2023-05-02T03:50:03.679Z,102181.91
2023-05-02T03:52:31.457Z,102178.34
2023-05-02T03:54:57.995Z,102187.03
2023-05-02T03:57:24.737Z,102181.19
2023-05-02T03:59:51.571Z,102193.94
2023-05-02T04:02:26.419Z,102192.25
2023-05-02T04:04:52.887Z,102193.28
2023-05-02T04:07:21.775Z,102202.16
2023-05-02T04:09:55.970Z,102205.19
2023-05-02T04:12:22.426Z,102204.19
2023-05-02T04:14:51.001Z,102209.41
2023-05-02T04:17:17.457Z,102207.88
2023-05-02T04:19:48.976Z,102209.75
2023-05-02T04:22:16.688Z,102209.94
2023-05-02T04:24:47.903Z,102216.66
2023-05-02T04:27:15.467Z,102219.06
2023-05-02T04:29:42.737Z,102225.88
2023-05-02T04:32:11.601Z,102228.56
2023-05-02T04:34:38.903Z,102226.53
2023-05-02T04:37:05.468Z,102229.41
2023-05-02T04:39:33.801Z,102244.78
2023-05-02T04:42:04.298Z,102256.31
2023-05-02T04:44:35.834Z,102248.94
2023-05-02T04:47:02.442Z,102255.63
2023-05-02T04:49:28.895Z,102261.38
2023-05-02T04:51:55.349Z,102269.66
2023-05-02T04:54:23.454Z,102274.13
2023-05-02T04:56:50.082Z,102276.81
2023-05-02T04:59:17.289Z,102288.63
2023-05-02T05:01:45.306Z,102287.97
2023-05-02T05:04:11.969Z,102284.78
2023-05-02T05:06:38.599Z,102292.03
2023-05-02T05:09:06.033Z,102292.03
2023-05-02T05:11:34.203Z,102286.31
2023-05-02T05:14:03.969Z,102302.66
2023-05-02T05:16:32.177Z,102304.34
2023-05-02T05:18:58.788Z,102308.53
2023-05-02T05:21:47.331Z,102314.88
2023-05-02T05:24:17.797Z,102311.91
2023-05-02T05:26:44.419Z,102308.53
2023-05-02T05:29:11.568Z,102323.53
2023-05-02T05:31:41.733Z,102328.47
2023-05-02T05:34:09.448Z,102330.78
2023-05-02T05:36:37.190Z,102339.72
2023-05-02T05:39:04.194Z,102338.13
2023-05-02T05:41:34.098Z,102338.63
2023-05-02T05:44:04.502Z,102343.81
2023-05-02T05:46:31.379Z,102356.19
2023-05-02T05:48:59.083Z,102362.78
2023-05-02T05:51:27.898Z,102361.09
2023-05-02T05:53:56.767Z,102370.16
2023-05-02T05:56:23.585Z,102371.47
2023-05-02T05:59:07.079Z,102388.66
2023-05-02T06:01:34.134Z,102383.09
2023-05-02T06:04:01.556Z,102385.44
2023-05-02T06:06:28.951Z,102387.38
2023-05-02T06:08:55.453Z,102392.56
2023-05-02T06:11:22.466Z,102391.19
2023-05-02T06:13:48.905Z,102388.78
2023-05-02T06:16:15.785Z,102394.44
2023-05-02T06:18:42.248Z,102408.22
2023-05-02T06:21:08.735Z,102410.88
2023-05-02T06:23:35.669Z,102410.72
2023-05-02T06:26:04.229Z,102412.84
2023-05-02T06:28:31.471Z,102421.72
2023-05-02T06:30:58.647Z,102415.19
2023-05-02T06:33:25.235Z,102427.66
2023-05-02T06:35:53.221Z,102431.63
2023-05-02T06:38:20.356Z,102433.09
2023-05-02T06:40:46.934Z,102434.94
2023-05-02T06:43:13.642Z,102441.63
2023-05-02T06:45:40.940Z,102454.53
2023-05-02T06:48:08.270Z,102464.75
2023-05-02T06:50:35.116Z,102460.75
2023-05-02T06:53:01.907Z,102463.31
2023-05-02T06:55:28.550Z,102465.47
2023-05-02T06:57:55.445Z,102466.22
2023-05-02T07:00:22.098Z,102481.91
2023-05-02T07:02:49.614Z,102484.78
2023-05-02T07:05:16.586Z,102481.91
2023-05-02T07:07:43.632Z,102486.69
2023-05-02T07:10:11.255Z,102495.81
2023-05-02T07:12:39.428Z,102497.63
2023-05-02T07:15:07.239Z,102500.56
2023-05-02T07:17:34.090Z,102510.50
2023-05-02T07:20:00.872Z,102510.53
2023-05-02T07:22:27.497Z,102505.81
2023-05-02T07:24:58.932Z,102512.38
2023-05-02T07:27:25.763Z,102522.31
2023-05-02T07:29:52.225Z,102528.38
2023-05-02T07:32:19.892Z,102525.25
2023-05-02T07:34:46.368Z,102528.94
2023-05-02T07:37:12.885Z,102532.47
2023-05-02T07:39:39.290Z,102531.25
2023-05-02T07:42:06.574Z,102519.03
2023-05-02T07:44:34.927Z,102531.09
2023-05-02T07:47:01.387Z,102534.41
2023-05-02T07:49:27.873Z,102533.00
2023-05-02T07:51:54.277Z,102535.84
2023-05-02T07:54:21.910Z,102539.06
2023-05-02T07:56:48.984Z,102545.91
2023-05-02T07:59:15.499Z,102537.63
2023-05-02T08:01:41.946Z,102552.53
2023-05-02T08:04:10.461Z,102544.41
2023-05-02T08:06:38.020Z,102548.47
2023-05-02T08:09:04.629Z,102552.44
2023-05-02T08:11:31.067Z,102551.22
2023-05-02T08:13:57.554Z,102554.28
2023-05-02T08:16:24.021Z,102561.53
2023-05-02T08:18:50.491Z,102566.22
2023-05-02T08:21:16.942Z,102570.84
2023-05-02T08:23:43.438Z,102564.84
2023-05-02T08:26:09.950Z,102570.66
2023-05-02T08:28:36.805Z,102569.31
2023-05-02T08:31:03.395Z,102573.09
2023-05-02T08:33:29.848Z,102581.97
2023-05-02T08:35:56.464Z,102578.25
2023-05-02T08:38:22.983Z,102575.47
2023-05-02T08:40:49.492Z,102589.66
2023-05-02T08:43:17.100Z,102583.41
2023-05-02T08:45:45.166Z,102590.97
2023-05-02T08:48:13.529Z,102601.03
2023-05-02T08:50:42.453Z,102600.09
2023-05-02T08:53:10.108Z,102599.53
2023-05-02T08:55:39.818Z,102605.88
2023-05-02T08:58:07.246Z,102608.72
2023-05-02T09:00:37.893Z,102612.94
2023-05-02T09:03:11.735Z,102606.03
2023-05-02T09:05:42.375Z,102608.31
2023-05-02T09:08:09.336Z,102619.09
2023-05-02T09:10:39.331Z,102623.31
2023-05-02T09:13:28.121Z,102624.59
2023-05-02T09:16:00.003Z,102624.06
2023-05-02T09:18:49.713Z,102622.19
2023-05-02T09:21:21.284Z,102624.88
2023-05-02T09:23:55.763Z,102626.75
2023-05-02T09:26:27.493Z,102626.38
2023-05-02T09:28:56.105Z,102626.84
2023-05-02T09:31:49.593Z,102629.22
2023-05-02T09:34:17.161Z,102638.69
2023-05-02T09:36:50.346Z,102633.59
2023-05-02T09:39:21.478Z,102635.94
2023-05-02T09:41:49.235Z,102642.34
2023-05-02T09:44:18.491Z,102643.69
2023-05-02T09:46:49.363Z,102641.91
2023-05-02T09:49:18.861Z,102653.56
2023-05-02T09:51:49.138Z,102650.84
2023-05-02T09:54:36.278Z,102648.94
2023-05-02T09:57:03.704Z,102642.59
2023-05-02T09:59:30.758Z,102657.75
2023-05-02T10:01:59.584Z,102647.25
2023-05-02T10:04:27.776Z,102640.41
2023-05-02T10:06:55.524Z,102635.63
2023-05-02T10:09:22.773Z,102651.66
2023-05-02T10:11:54.378Z,102651.53
2023-05-02T10:14:22.989Z,102651.38
2023-05-02T10:16:59.647Z,102647.13
2023-05-02T10:19:52.333Z,102665.72
2023-05-02T10:22:22.824Z,102670.72
2023-05-02T10:24:49.907Z,102668.72
2023-05-02T10:27:16.965Z,102670.53
2023-05-02T10:29:44.365Z,102681.00
2023-05-02T10:32:11.026Z,102676.88
2023-05-02T10:34:40.219Z,102683.09
2023-05-02T10:37:06.815Z,102697.66
2023-05-02T10:39:33.510Z,102687.91
2023-05-02T10:42:04.865Z,102677.56
2023-05-02T10:44:40.068Z,102683.13
2023-05-02T10:47:23.580Z,102694.19
2023-05-02T10:49:54.975Z,102699.47
2023-05-02T10:52:41.114Z,102690.84
2023-05-02T10:55:19.773Z,102681.38
2023-05-02T10:57:58.864Z,102679.81
2023-05-02T11:00:27.508Z,102684.94
2023-05-02T11:02:54.061Z,102680.03
2023-05-02T11:05:22.154Z,102696.38
2023-05-02T11:07:48.743Z,102704.50
2023-05-02T11:10:24.924Z,102697.34
2023-05-02T11:12:53.360Z,102701.34
2023-05-02T11:15:22.891Z,102702.31
2023-05-02T11:18:09.198Z,102703.72
2023-05-02T11:20:36.878Z,102695.13
2023-05-02T11:23:16.261Z,102691.72
2023-05-02T11:26:00.964Z,102701.44
2023-05-02T11:28:47.935Z,102703.38
2023-05-02T11:31:26.854Z,102705.19
2023-05-02T11:33:57.873Z,102707.44
2023-05-02T11:36:33.314Z,102706.28
2023-05-02T11:39:05.678Z,102708.59
2023-05-02T11:41:42.444Z,102704.31
2023-05-02T11:44:08.940Z,102704.28
2023-05-02T11:46:39.606Z,102701.31
2023-05-02T11:49:09.302Z,102709.88
2023-05-02T11:51:36.806Z,102718.28
2023-05-02T11:54:03.888Z,102716.59
2023-05-02T11:56:30.456Z,102712.47
2023-05-02T11:59:01.036Z,102714.88
2023-05-02T12:01:27.575Z,102715.91
2023-05-02T12:04:07.959Z,102717.28
2023-05-02T12:06:34.850Z,102721.91
2023-05-02T12:09:16.123Z,102734.16
2023-05-02T12:11:43.590Z,102730.94
2023-05-02T12:14:11.644Z,102729.75
2023-05-02T12:16:38.433Z,102740.81
2023-05-02T12:19:05.574Z,102738.22
2023-05-02T12:21:33.378Z,102751.97
2023-05-02T12:24:01.691Z,102746.09
2023-05-02T12:26:33.019Z,102757.22
2023-05-02T12:29:00.938Z,102759.25
2023-05-02T12:31:29.084Z,102749.38
2023-05-02T12:33:57.926Z,102741.03
2023-05-02T12:36:24.981Z,102748.59
2023-05-02T12:38:59.104Z,102757.09
2023-05-02T12:41:46.036Z,102772.06
2023-05-02T12:44:12.487Z,102760.88
2023-05-02T12:46:58.573Z,102770.19
2023-05-02T12:49:25.066Z,102769.47
2023-05-02T12:51:58.083Z,102770.38
2023-05-02T12:54:26.138Z,102776.31
2023-05-02T12:56:52.766Z,102771.97
2023-05-02T12:59:30.477Z,102781.13
2023-05-02T13:01:57.453Z,102779.41
2023-05-02T13:04:54.084Z,102773.66
2023-05-02T13:07:20.610Z,102770.66
2023-05-02T13:09:47.054Z,102780.53
2023-05-02T13:12:13.508Z,102766.84
2023-05-02T13:14:40.012Z,102770.28
2023-05-02T13:17:08.415Z,102775.13
2023-05-02T13:19:34.981Z,102773.25
2023-05-02T13:22:01.664Z,102776.00
2023-05-02T13:24:28.170Z,102776.53
2023-05-02T13:26:54.601Z,102778.56
2023-05-02T13:29:21.070Z,102779.34
2023-05-02T13:31:47.558Z,102770.41
2023-05-02T13:34:13.967Z,102778.00
2023-05-02T13:36:45.888Z,102777.66
2023-05-02T13:39:13.732Z,102780.00
2023-05-02T13:41:40.237Z,102778.75
2023-05-02T13:44:06.632Z,102783.47
2023-05-02T13:46:36.552Z,102777.00
2023-05-02T13:49:03.757Z,102788.31
2023-05-02T13:51:33.606Z,102772.97
2023-05-02T13:54:01.084Z,102775.53
2023-05-02T13:56:27.907Z,102772.13
2023-05-02T13:58:54.457Z,102780.22
2023-05-02T14:01:21.001Z,102787.03
2023-05-02T14:03:47.654Z,102788.66
2023-05-02T14:06:14.347Z,102789.09
2023-05-02T14:08:41.025Z,102787.91
2023-05-02T14:11:07.566Z,102795.38
2023-05-02T14:13:34.007Z,102795.59
2023-05-02T14:16:00.699Z,102787.06
2023-05-02T14:18:27.253Z,102793.16
2023-05-02T14:20:53.725Z,102792.22
2023-05-02T14:23:20.697Z,102779.59
2023-05-02T14:25:47.098Z,102781.91
2023-05-02T14:28:13.677Z,102789.59
2023-05-02T14:30:40.103Z,102789.94
2023-05-02T14:33:06.711Z,102799.59
2023-05-02T14:35:33.125Z,102793.13
2023-05-02T14:37:59.503Z,102791.53
2023-05-02T14:40:25.945Z,102794.03
2023-05-02T14:42:52.403Z,102799.81
2023-05-02T14:45:18.818Z,102792.72
2023-05-02T14:47:45.416Z,102805.34
2023-05-02T14:50:14.181Z,102799.16
2023-05-02T14:52:40.705Z,102794.13
2023-05-02T14:55:07.374Z,102800.00
2023-05-02T14:57:33.922Z,102801.94
2023-05-02T15:00:01.222Z,102801.75
2023-05-02T15:02:28.004Z,102794.16
2023-05-02T15:04:54.553Z,102791.50
2023-05-02T15:07:21.731Z,102794.25
2023-05-02T15:09:48.251Z,102794.34
2023-05-02T15:12:14.694Z,102794.78
2023-05-02T15:14:41.346Z,102786.44
2023-05-02T15:17:07.908Z,102792.88
2023-05-02T15:19:34.420Z,102781.75
2023-05-02T15:22:01.578Z,102781.41
2023-05-02T15:24:28.631Z,102787.63
2023-05-02T15:26:55.683Z,102786.00
2023-05-02T15:29:22.253Z,102786.06
2023-05-02T15:31:48.675Z,102780.66
2023-05-02T15:34:15.455Z,102781.88
2023-05-02T15:36:45.028Z,102780.44
2023-05-02T15:39:11.555Z,102784.66
2023-05-02T15:41:38.051Z,102799.53
2023-05-02T15:44:06.896Z,102794.66
2023-05-02T15:46:33.599Z,102797.34
2023-05-02T15:49:00.132Z,102794.94
2023-05-02T15:51:27.083Z,102795.31
2023-05-02T15:53:53.958Z,102790.47
2023-05-02T15:56:21.294Z,102787.41
2023-05-02T15:58:48.282Z,102791.09
2023-05-02T16:01:14.820Z,102794.16
2023-05-02T16:03:42.010Z,102788.75
2023-05-02T16:06:08.891Z,102786.59
2023-05-02T16:08:35.790Z,102790.09
2023-05-02T16:11:02.261Z,102797.72
2023-05-02T16:13:28.754Z,102805.09
2023-05-02T16:15:56.060Z,102800.88
2023-05-02T16:18:27.831Z,102808.91
2023-05-02T16:20:56.874Z,102796.09
2023-05-02T16:23:24.430Z,102797.94
2023-05-02T16:25:57.186Z,102793.38
2023-05-02T16:28:23.710Z,102805.63
2023-05-02T16:30:50.528Z,102816.56
2023-05-02T16:33:16.925Z,102812.72
2023-05-02T16:35:43.357Z,102806.66
2023-05-02T16:38:10.015Z,102800.22
2023-05-02T16:40:36.942Z,102796.72
2023-05-02T16:43:03.437Z,102801.97
2023-05-02T16:45:29.889Z,102799.63
2023-05-02T16:47:57.075Z,102799.81
2023-05-02T16:50:23.667Z,102799.38
2023-05-02T16:52:50.081Z,102804.28
2023-05-02T16:55:16.765Z,102806.53
2023-05-02T16:57:43.189Z,102806.53
2023-05-02T17:00:12.267Z,102801.13
2023-05-02T17:02:38.801Z,102819.63
2023-05-02T17:05:05.644Z,102810.06
2023-05-02T17:07:32.401Z,102814.13
2023-05-02T17:09:59.444Z,102819.94
2023-05-02T17:12:25.948Z,102818.69
2023-05-02T17:14:52.434Z,102827.66
2023-05-02T17:17:22.587Z,102831.25
2023-05-02T17:19:49.685Z,102834.34
2023-05-02T17:22:16.512Z,102834.22
2023-05-02T17:24:43.684Z,102832.44
2023-05-02T17:27:11.590Z,102827.41
2023-05-02T17:29:38.361Z,102825.06
2023-05-02T17:32:04.979Z,102824.28
2023-05-02T17:34:33.364Z,102820.44
2023-05-02T17:36:59.748Z,102822.16
2023-05-02T17:39:26.185Z,102828.09
2023-05-02T17:41:52.640Z,102826.94
2023-05-02T17:44:19.113Z,102831.97
2023-05-02T17:46:46.632Z,102828.78
2023-05-02T17:49:13.249Z,102833.00
2023-05-02T17:51:39.713Z,102837.09
2023-05-02T17:54:06.234Z,102837.09
2023-05-02T17:56:34.976Z,102846.06
2023-05-02T17:59:01.601Z,102842.69
2023-05-02T18:01:28.040Z,102842.38
2023-05-02T18:03:54.757Z,102838.13
2023-05-02T18:06:21.588Z,102844.06
2023-05-02T18:08:48.008Z,102840.69
2023-05-02T18:11:16.623Z,102837.28
2023-05-02T18:13:43.951Z,102841.84
2023-05-02T18:16:10.772Z,102838.47
2023-05-02T18:18:38.409Z,102852.50
2023-05-02T18:21:06.154Z,102845.59
2023-05-02T18:23:33.269Z,102850.00
2023-05-02T18:25:59.710Z,102850.50
2023-05-02T18:28:26.249Z,102851.00
2023-05-02T18:30:52.792Z,102850.00
2023-05-02T18:33:19.179Z,102850.34
2023-05-02T18:35:49.009Z,102849.63
2023-05-02T18:38:16.051Z,102857.41
2023-05-02T18:40:42.820Z,102852.97
2023-05-02T18:43:09.455Z,102862.41
2023-05-02T18:45:37.993Z,102858.38
2023-05-02T18:48:06.819Z,102863.03
2023-05-02T18:50:33.384Z,102865.53
2023-05-02T18:52:59.858Z,102854.56
2023-05-02T18:55:26.360Z,102863.63
2023-05-02T18:57:52.739Z,102867.00
2023-05-02T19:00:20.331Z,102866.66
2023-05-02T19:02:47.465Z,102860.38
2023-05-02T19:05:14.921Z,102864.72
2023-05-02T19:07:41.342Z,102868.91
2023-05-02T19:10:08.070Z,102876.97
2023-05-02T19:12:34.490Z,102881.00
2023-05-02T19:15:01.412Z,102875.75
2023-05-02T19:17:28.480Z,102876.34
2023-05-02T19:19:56.187Z,102873.81
2023-05-02T19:22:24.030Z,102878.19
2023-05-02T19:24:50.908Z,102877.81
2023-05-02T19:27:17.400Z,102886.22
2023-05-02T19:29:44.165Z,102882.00
2023-05-02T19:32:10.653Z,102881.06
2023-05-02T19:34:37.196Z,102886.56
2023-05-02T19:37:04.062Z,102886.19
2023-05-02T19:39:31.490Z,102890.88
2023-05-02T19:41:58.010Z,102885.28
2023-05-02T19:44:24.428Z,102885.75
2023-05-02T19:46:51.091Z,102892.59
2023-05-02T19:49:17.591Z,102892.75
2023-05-02T19:51:44.071Z,102898.28
2023-05-02T19:54:10.552Z,102904.03
2023-05-02T19:56:37.020Z,102902.19
2023-05-02T19:59:03.449Z,102898.28
2023-05-02T20:01:31.262Z,102904.00
2023-05-02T20:03:58.103Z,102901.44
2023-05-02T20:06:24.705Z,102893.53
2023-05-02T20:08:52.384Z,102904.31
2023-05-02T20:11:18.870Z,102910.81
2023-05-02T20:13:45.838Z,102915.66
2023-05-02T20:16:13.811Z,102925.06
2023-05-02T20:18:40.246Z,102921.66
2023-05-02T20:21:06.690Z,102927.81
2023-05-02T20:23:33.112Z,102922.88
2023-05-02T20:25:59.689Z,102927.72
2023-05-02T20:30:52.881Z,102921.66
2023-05-02T20:33:19.739Z,102923.81
2023-05-02T20:35:53.621Z,102931.31
2023-05-02T20:38:20.316Z,102932.63
2023-05-02T20:40:46.742Z,102933.78
2023-05-02T20:43:14.209Z,102939.31
2023-05-02T20:45:40.760Z,102938.03
2023-05-02T20:48:07.403Z,102944.72
2023-05-02T20:50:33.902Z,102940.97
2023-05-02T20:53:00.441Z,102951.13
2023-05-02T20:55:27.577Z,102946.91
2023-05-02T20:57:54.048Z,102946.38
2023-05-02T21:00:23.293Z,102949.22
2023-05-02T21:02:49.930Z,102947.53
2023-05-02T21:05:16.624Z,102948.78
2023-05-02T21:07:44.621Z,102943.56
2023-05-02T21:10:11.138Z,102938.59
2023-05-02T21:12:37.617Z,102940.91
2023-05-02T21:15:04.498Z,102946.03
2023-05-02T21:17:30.933Z,102953.66
2023-05-02T21:19:57.364Z,102944.22
2023-05-02T21:22:23.801Z,102942.81
2023-05-02T21:24:50.840Z,102947.59
2023-05-02T21:27:17.386Z,102946.50
2023-05-02T21:29:43.826Z,102949.50
2023-05-02T21:32:10.724Z,102944.56
2023-05-02T21:34:37.331Z,102937.75
2023-05-02T21:37:03.942Z,102938.34
2023-05-02T21:39:30.374Z,102940.34
2023-05-02T21:41:56.817Z,102940.34
2023-05-02T21:44:23.290Z,102941.19
2023-05-02T21:46:51.380Z,102935.81
2023-05-02T21:49:17.836Z,102934.41
2023-05-02T21:51:44.401Z,102935.41
2023-05-02T21:54:10.896Z,102945.41
2023-05-02T21:56:37.528Z,102944.03
2023-05-02T21:59:03.983Z,102946.16
2023-05-02T22:01:30.449Z,102946.44
2023-05-02T22:03:57.964Z,102948.44
2023-05-02T22:06:25.047Z,102939.78
2023-05-02T22:08:51.900Z,102933.03
2023-05-02T22:11:18.421Z,102939.53
2023-05-02T22:13:45.359Z,102931.63
2023-05-02T22:16:11.926Z,102932.06
2023-05-02T22:18:38.396Z,102926.81
2023-05-02T22:21:04.865Z,102929.06
2023-05-02T22:23:34.433Z,102915.78
2023-05-02T22:26:01.143Z,102923.41
2023-05-02T22:28:27.602Z,102909.03
2023-05-02T22:30:54.720Z,102923.13
2023-05-02T22:33:21.569Z,102921.44
2023-05-02T22:35:48.009Z,102921.72
2023-05-02T22:38:18.761Z,102931.59
2023-05-02T22:40:45.198Z,102925.41
2023-05-02T22:43:11.731Z,102928.63
2023-05-02T22:45:38.267Z,102915.78
2023-05-02T22:48:06.795Z,102916.63
2023-05-02T22:50:33.792Z,102911.97
2023-05-02T22:53:03.845Z,102919.03
2023-05-02T22:55:30.583Z,102920.84
2023-05-02T22:57:57.118Z,102920.84
2023-05-02T23:00:24.633Z,102927.91
2023-05-02T23:02:51.181Z,102920.84
2023-05-02T23:05:17.746Z,102918.31
2023-05-02T23:07:44.206Z,102926.66
2023-05-02T23:10:10.666Z,102930.44
2023-05-02T23:12:37.083Z,102928.06
2023-05-02T23:15:03.807Z,102927.31
2023-05-02T23:17:30.431Z,102933.53
2023-05-02T23:19:57.303Z,102940.28
2023-05-02T23:22:23.719Z,102943.25
2023-05-02T23:24:50.196Z,102942.53
2023-05-02T23:27:16.632Z,102952.44
2023-05-02T23:29:43.066Z,102940.16
2023-05-02T23:32:09.620Z,102941.38
2023-05-02T23:34:36.653Z,102931.22
2023-05-02T23:37:05.618Z,102944.44
2023-05-02T23:39:32.645Z,102947.38
2023-05-02T23:41:59.982Z,102953.72
2023-05-02T23:44:26.522Z,102959.94
2023-05-02T23:46:52.981Z,102963.75
2023-05-02T23:49:19.431Z,102955.97
2023-05-02T23:51:45.948Z,102964.88
2023-05-02T23:54:12.702Z,102966.69
2023-05-02T23:56:39.142Z,102969.50
2023-05-02T23:59:05.724Z,102969.78
